Weather observations for the past three days for
Titusville
Metric (Imperial)
Date Time (edt) Wind (kph) Vis. (km) Weather Sky Cond. Temperature (ºC) Relative Humidity Wind Chill (°C) Heat Index (°C) Pressure Precipitation (cm)
Air Dwpt 6 hour altimeter (cm) sea level (mb) 1 hr 3 hr 6 hr
Max. Min.
03 20:47 E 19 11.27 Partly Cloudy SCT030 24 15 57% 25 76.28 0.0
03 19:47 NE 19 11.27 Mostly Cloudy BKN030 25 15 54% 26 76.25 0.0
03 18:47 NE 19 11.27 Mostly Cloudy BKN030 25 15 54% 26 76.25 0.0
03 17:47 NE 19 11.27 Mostly Cloudy BKN030 25 16 57% 26 76.25 0.0
03 16:47 N 28 11.27 Mostly Cloudy BKN030 26 15 51% 27 76.25 0.0
03 15:47 NE 22 G 37 11.27 Mostly Cloudy BKN030 27 15 48% 27 76.28 0.0
03 14:47 N 22 G 37 11.27 Mostly Cloudy BKN030 27 16 51% 27 76.38 0.0
03 13:47 N 22 G 37 11.27 Mostly Cloudy BKN030 26 16 54% 27 76.38 0.0
03 12:47 NE 22 G 33 11.27 Overcast OVC030 25 16 57% 26 76.4 0.0
03 11:47 NE 22 G 33 11.27 Mostly Cloudy SCT028 BKN034 25 15 54% 26 76.4 0.0
03 10:47 NE 30 11.27 Partly Cloudy SCT028 SCT034 24 16 61% 25 76.38 0.0
03 09:47 N 26 11.27 Mostly Cloudy BKN049 23 16 65% 76.33 0.0
03 08:47 NE 22 G 31 11.27 Overcast SCT030 OVC045 22 17 73% 76.3 0.0
03 07:47 NW 17 11.27 Overcast SCT025 OVC035 20 18 88% 76.23 0.0
03 06:47 NW 11 11.27 Overcast BKN030 OVC045 20 19 94% 76.23 0.0
02 20:47 NW 11 11.27 Partly Cloudy SCT055 23 20 83% 75.87 0.0
02 19:47 NW 15 11.27 Partly Cloudy SCT055 SCT070 24 20 78% 24 75.82 0.0
02 18:47 W 7 11.27 Light Rain BKN110 23 20 83% 75.82 0.0
02 17:47 SW 11 11.27 Showers in Vicinity SCT050 BKN070 23 20 83% 75.74 0.0
02 16:47 NW 28 G 43 11.27 Showers in Vicinity BKN050 OVC070 24 19 74% 25 75.9 0.0
02 15:47 W 9 11.27 Showers in Vicinity SCT047 BKN055 28 22 70% 31 75.79 0.0
02 14:47 SW 19 11.27 Thunderstorm SCT030 OVC060 31 20 52% 33 75.82 0.0
02 13:47 SW 20 G 39 11.27 Partly Cloudy SCT030 32 20 49% 34 75.82 0.0
02 12:47 SW 20 G 39 11.27 Partly Cloudy SCT040 32 20 49% 34 75.87 0.0
02 11:47 SW 28 11.27 Partly Cloudy SCT040 31 19 49% 32 75.87 0.0
02 10:47 SW 13 11.27 Partly Cloudy SCT040 29 19 55% 30 75.92 0.0
02 09:47 SW 13 11.27 Partly Cloudy SCT040 27 20 66% 29 75.9 0.0
02 08:47 SW 7 11.27 Partly Cloudy SCT008 25 22 83% 26 75.87 0.0
02 07:47 SW 6 11.27 Partly Cloudy SCT120 23 22 94% 75.82 0.0
02 06:47 SW 7 11.27 Partly Cloudy SCT120 22 21 94% 75.79 0.0
01 20:47 E 11 11.27 Partly Cloudy SCT120 28 22 70% 31 75.82 0.0
01 19:47 SE 15 11.27 Partly Cloudy SCT120 28 21 66% 30 75.77 0.0
01 18:47 SE 13 11.27 Partly Cloudy SCT070 30 21 59% 33 75.74 0.0
01 17:47 SE 19 11.27 Partly Cloudy SCT070 30 21 59% 33 75.72 0.0
01 16:47 SE 22 11.27 Partly Cloudy SCT055 32 21 52% 35 75.72 0.0
01 15:47 E 20 11.27 Partly Cloudy SCT055 33 20 46% 35 75.79 0.0
01 14:47 W 9 11.27 Partly Cloudy SCT055 34 17 36% 35 75.84 0.0
01 13:47 W 9 11.27 Partly Cloudy SCT050 33 17 38% 33 75.9 0.0
01 12:47 Vrbl 11 11.27 Partly Cloudy SCT030 32 18 43% 33 75.95 0.0
01 11:47 Vrbl 11 11.27 Partly Cloudy SCT030 31 18 46% 32 75.95 0.0
01 10:47 Vrbl 9 11.27 Partly Cloudy SCT030 30 19 52% 31 75.95 0.0
01 09:47 NW 13 11.27 A Few Clouds FEW012 28 21 66% 30 75.97 0.0
01 08:47 W 9 11.27 Partly Cloudy SCT060 26 22 79% 28 75.97 0.0
01 07:47 W 9 11.27 Mostly Cloudy BKN060 24 22 89% 24 75.9 0.0
01 06:47 W 9 11.27 Mostly Cloudy BKN060 23 21 89% 75.92 0.0
Date Time (edt) Wind (kph) Vis. (km) Weather Sky Cond. Air Dwpt Max. Min. Relative Humidity Wind Chill (°C) Heat Index (°C) altimeter (cm) sea level (mb) 1 hr 3 hr 6 hr
6 hour
Temperature (ºC) Pressure Precipitation (cm)